Time;durP1;ratioP1;P1;durP2;ratioP2;P2;SDS_P1;SDS_P2;PMS_P1;PMS_P2;Temp;Humidity;BMP_temperature;BMP_pressure;BME280_temperature;BME280_humidity;BME280_pressure;Samples;Min_cycle;Max_cycle;Signal;HPM_P1;HPM_P2
2022/01/30 00:01:15;;;;;;;11.32;3.47;;;6.20;1.00;;;;;;5036155;28;20203;-79
2022/01/30 00:03:42;;;;;;;23.60;5.10;;;6.10;99.90;;;;;;5038401;28;20210;-79
2022/01/30 00:06:09;;;;;;;15.88;3.67;;;6.10;1.00;;;;;;5037059;28;20255;-79
2022/01/30 00:08:35;;;;;;;9.75;3.38;;;6.00;1.00;;;;;;5037261;28;20223;-79
2022/01/30 00:11:10;;;;;;;19.27;4.13;;;6.00;99.90;;;;;;5037921;28;20219;-80
2022/01/30 00:13:38;;;;;;;11.35;3.53;;;6.00;99.90;;;;;;5037402;28;20217;-80
2022/01/30 00:16:08;;;;;;;12.90;3.85;;;6.40;99.90;;;;;;5036709;28;20231;-80
2022/01/30 00:18:48;;;;;;;14.70;4.68;;;6.00;1.00;;;;;;5037072;28;20190;-80
2022/01/30 00:21:28;;;;;;;16.15;4.32;;;6.10;99.90;;;;;;5036745;28;20188;-78
2022/01/30 00:24:00;;;;;;;18.65;4.68;;;6.20;37.70;;;;;;5037000;28;20188;-80
2022/01/30 00:26:32;;;;;;;12.15;3.70;;;6.20;99.90;;;;;;5036488;28;20722;-79
2022/01/30 00:29:00;;;;;;;13.40;3.88;;;6.20;99.90;;;;;;5036275;28;20188;-79
2022/01/30 00:31:27;;;;;;;16.17;4.40;;;6.20;99.90;;;;;;5037042;28;20211;-79
2022/01/30 00:33:54;;;;;;;15.80;3.30;;;6.20;1.00;;;;;;5040090;28;20199;-79
2022/01/30 00:36:21;;;;;;;13.02;5.63;;;6.30;99.90;;;;;;5039828;28;20224;-80
2022/01/30 00:38:48;;;;;;;18.08;3.83;;;6.30;99.90;;;;;;5040002;28;20204;-79
2022/01/30 00:41:14;;;;;;;13.60;4.25;;;6.30;99.90;;;;;;5045498;28;20218;-80
2022/01/30 00:43:41;;;;;;;18.65;4.50;;;6.40;1.00;;;;;;5046159;28;20211;-79
2022/01/30 00:46:09;;;;;;;9.35;3.28;;;6.50;99.90;;;;;;5043738;28;20231;-79
2022/01/30 00:48:35;;;;;;;19.23;5.68;;;6.40;1.00;;;;;;5049008;28;20215;-79
2022/01/30 00:51:02;;;;;;;14.02;3.45;;;6.50;99.90;;;;;;5048597;28;20212;-79
2022/01/30 00:53:29;;;;;;;13.50;3.10;;;6.40;1.00;;;;;;5052208;28;20215;-78
2022/01/30 00:55:55;;;;;;;9.35;2.83;;;6.40;1.00;;;;;;5056845;28;20218;-78
2022/01/30 00:58:22;;;;;;;10.27;2.65;;;6.30;25.60;;;;;;5055395;28;20219;-78
2022/01/30 01:00:49;;;;;;;8.98;3.08;;;6.30;99.90;;;;;;5050965;28;20206;-79
2022/01/30 01:03:17;;;;;;;14.10;4.50;;;6.20;99.90;;;;;;5047612;28;20219;-79
2022/01/30 01:05:44;;;;;;;15.43;4.28;;;6.20;1.00;;;;;;5046545;28;20235;-80
2022/01/30 01:08:16;;;;;;;15.75;3.95;;;6.20;99.90;;;;;;5045146;28;20204;-79
2022/01/30 01:10:47;;;;;;;15.77;3.03;;;6.20;28.50;;;;;;5045025;28;20270;-79
2022/01/30 01:13:40;;;;;;;20.85;3.58;;;6.20;99.90;;;;;;5041660;28;20191;-79
2022/01/30 01:24:20;;;;;;;10.35;3.85;;;6.30;99.90;;;;;;5049381;28;20199;-78
2022/01/30 01:26:46;;;;;;;15.60;3.28;;;6.20;99.90;;;;;;5042841;28;20251;-80
2022/01/30 01:29:14;;;;;;;14.48;4.35;;;6.40;1.00;;;;;;5040904;28;20226;-80
2022/01/30 01:31:41;;;;;;;14.30;3.55;;;6.50;1.00;;;;;;5039894;28;20207;-80
2022/01/30 01:34:28;;;;;;;15.05;3.40;;;6.50;99.90;;;;;;5039346;28;20247;-80
2022/01/30 01:36:55;;;;;;;10.23;2.85;;;6.50;99.90;;;;;;5039764;28;20219;-80
2022/01/30 01:39:21;;;;;;;10.68;2.70;;;6.50;99.90;;;;;;5051766;28;20214;-79
2022/01/30 01:41:49;;;;;;;12.43;3.78;;;;;;;;;;5053629;28;20211;-77
2022/01/30 01:44:16;;;;;;;9.82;3.05;;;6.60;99.90;;;;;;5048674;28;20208;-80
2022/01/30 01:46:45;;;;;;;14.13;4.22;;;6.50;99.90;;;;;;5039591;28;20223;-80
2022/01/30 01:49:19;;;;;;;7.68;3.10;;;6.60;1.00;;;;;;5039335;28;20235;-80
2022/01/30 01:51:50;;;;;;;17.77;3.53;;;6.60;99.90;;;;;;5038339;28;20191;-80
2022/01/30 01:54:16;;;;;;;10.70;3.28;;;6.60;99.90;;;;;;5039702;28;20208;-80
2022/01/30 01:56:43;;;;;;;10.73;3.05;;;6.60;99.90;;;;;;5039702;28;20278;-80
2022/01/30 01:59:10;;;;;;;14.63;3.20;;;6.60;99.90;;;;;;5039127;28;20204;-80
2022/01/30 02:01:36;;;;;;;15.13;3.92;;;6.60;99.90;;;;;;5037986;28;20208;-79
2022/01/30 02:04:03;;;;;;;9.52;3.38;;;6.60;1.00;;;;;;5038136;28;20254;-79
2022/01/30 02:06:31;;;;;;;5.78;2.33;;;6.60;99.90;;;;;;5038597;28;20228;-79
2022/01/30 02:09:01;;;;;;;14.65;3.90;;;6.60;1.00;;;;;;5039182;28;20274;-79
2022/01/30 02:11:33;;;;;;;15.65;3.45;;;6.60;99.90;;;;;;5042394;28;20253;-80
2022/01/30 02:14:21;;;;;;;11.35;4.35;;;6.60;99.90;;;;;;5048292;28;20192;-80
2022/01/30 02:25:16;;;;;;;10.63;3.25;;;6.90;1.00;;;;;;5037488;28;20653;-80
2022/01/30 02:27:43;;;;;;;6.57;2.97;;;6.60;1.00;;;;;;5038327;28;20303;-80
2022/01/30 02:30:13;;;;;;;14.48;4.07;;;6.60;1.00;;;;;;5038139;28;20258;-79
2022/01/30 02:32:40;;;;;;;13.65;3.42;;;6.60;99.90;;;;;;5039031;28;20227;-79
2022/01/30 02:35:07;;;;;;;16.00;3.45;;;7.00;99.90;;;;;;5036985;28;20207;-79
2022/01/30 02:37:35;;;;;;;9.57;3.70;;;6.70;99.90;;;;;;5036856;28;20242;-81
2022/01/30 02:40:04;;;;;;;12.07;3.55;;;6.60;99.90;;;;;;5037990;28;20199;-80
2022/01/30 02:42:33;;;;;;;6.15;2.33;;;6.60;99.90;;;;;;5037399;28;20299;-80
2022/01/30 02:45:03;;;;;;;12.98;3.33;;;6.60;99.90;;;;;;5037061;28;20731;-79
2022/01/30 02:47:41;;;;;;;13.77;3.50;;;6.60;99.90;;;;;;5038301;28;20218;-79
2022/01/30 02:50:17;;;;;;;9.60;3.50;;;6.60;99.90;;;;;;5037404;28;20600;-79
2022/01/30 02:52:55;;;;;;;14.90;3.30;;;6.60;1.00;;;;;;5037154;28;20318;-79
2022/01/30 02:55:22;;;;;;;11.82;3.50;;;6.60;1.00;;;;;;5036818;28;20724;-79
2022/01/30 02:57:49;;;;;;;14.18;3.75;;;6.50;1.00;;;;;;5037128;28;20219;-79
2022/01/30 03:00:16;;;;;;;8.05;2.83;;;6.50;99.90;;;;;;5041913;28;20214;-78
2022/01/30 03:02:43;;;;;;;10.52;3.42;;;6.50;1.00;;;;;;5046568;28;20199;-77
2022/01/30 03:05:10;;;;;;;8.90;3.25;;;6.40;1.00;;;;;;5047391;28;20294;-78
2022/01/30 03:07:37;;;;;;;14.73;3.97;;;6.50;99.90;;;;;;5046686;28;20214;-79
2022/01/30 03:10:05;;;;;;;13.75;3.90;;;6.50;99.90;;;;;;5047337;28;20658;-79
2022/01/30 03:12:32;;;;;;;17.48;4.43;;;6.50;99.90;;;;;;5036701;28;20203;-79
2022/01/30 03:14:59;;;;;;;12.60;4.97;;;6.70;1.00;;;;;;5036718;28;20213;-79
2022/01/30 03:17:26;;;;;;;10.85;3.60;;;6.50;1.00;;;;;;5037242;28;20205;-79
2022/01/30 03:19:53;;;;;;;17.10;3.92;;;6.50;45.70;;;;;;5053454;28;20222;-78
2022/01/30 03:22:19;;;;;;;11.63;2.85;;;6.30;1.00;;;;;;5053552;28;20196;-78
2022/01/30 03:24:46;;;;;;;10.93;3.83;;;6.10;99.90;;;;;;5053853;28;20210;-79
2022/01/30 03:27:14;;;;;;;15.50;3.67;;;6.10;97.50;;;;;;5072017;22;20646;-81
2022/01/30 03:29:49;;;;;;;18.50;4.15;;;5.80;99.90;;;;;;5070175;28;20203;-81
2022/01/30 03:32:15;;;;;;;12.25;4.65;;;;;;;;;;5065143;28;20244;-82
2022/01/30 03:34:42;;;;;;;14.65;4.15;;;5.80;99.90;;;;;;5070274;28;20198;-82
2022/01/30 03:37:09;;;;;;;7.43;3.03;;;5.90;99.90;;;;;;5072658;28;20278;-82
2022/01/30 03:39:36;;;;;;;12.57;3.90;;;5.90;99.90;;;;;;5074516;28;20211;-82
2022/01/30 03:42:03;;;;;;;12.40;4.38;;;6.00;1.00;;;;;;5076692;28;20194;-82
2022/01/30 03:44:31;;;;;;;15.32;4.32;;;6.00;18.50;;;;;;5074840;28;20202;-82
2022/01/30 03:46:57;;;;;;;11.52;3.83;;;6.00;99.90;;;;;;5072205;28;20639;-82
2022/01/30 03:49:24;;;;;;;15.25;4.82;;;6.00;99.90;;;;;;5070918;28;20207;-82
2022/01/30 03:51:51;;;;;;;6.68;2.92;;;6.10;1.00;;;;;;5066717;28;20207;-82
2022/01/30 03:54:17;;;;;;;9.23;4.55;;;6.10;99.90;;;;;;5064025;28;20256;-81
2022/01/30 03:56:46;;;;;;;13.18;3.15;;;6.10;1.00;;;;;;5064879;28;20222;-81
2022/01/30 03:59:12;;;;;;;25.60;5.25;;;6.10;99.90;;;;;;5061521;28;20207;-82
2022/01/30 04:01:40;;;;;;;17.40;4.88;;;6.10;1.00;;;;;;5060083;28;20230;-82
2022/01/30 04:04:07;;;;;;;12.50;5.13;;;6.10;99.90;;;;;;5060354;28;20203;-82
2022/01/30 04:06:34;;;;;;;12.52;3.70;;;5.80;99.90;;;;;;5061614;28;20262;-81
2022/01/30 04:09:03;;;;;;;28.83;3.50;;;5.50;1.00;;;;;;5064973;28;20199;-82
2022/01/30 04:11:30;;;;;;;13.52;3.20;;;5.30;53.30;;;;;;5063641;28;20696;-82
2022/01/30 04:13:57;;;;;;;11.60;3.90;;;4.60;99.90;;;;;;5063386;28;20207;-82
2022/01/30 04:16:24;;;;;;;11.52;4.30;;;4.90;99.90;;;;;;5063202;28;20223;-82
2022/01/30 04:18:52;;;;;;;12.93;5.38;;;4.90;99.90;;;;;;5062515;28;20257;-82
2022/01/30 04:21:19;;;;;;;21.00;5.60;;;4.80;99.90;;;;;;5062543;28;20203;-81
2022/01/30 04:23:45;;;;;;;9.55;3.25;;;4.80;99.90;;;;;;5062205;28;20207;-83
2022/01/30 04:26:12;;;;;;;17.98;3.90;;;4.80;99.90;;;;;;5061229;28;20253;-81
2022/01/30 04:28:40;;;;;;;6.15;3.15;;;4.80;99.90;;;;;;5061985;28;20569;-83
2022/01/30 04:31:06;;;;;;;16.17;3.90;;;4.80;99.90;;;;;;5062207;28;20210;-83
2022/01/30 04:33:34;;;;;;;16.15;3.60;;;4.90;99.90;;;;;;5061930;28;20218;-82
2022/01/30 04:36:06;;;;;;;12.50;2.97;;;4.90;99.90;;;;;;5067729;28;20247;-81
2022/01/30 04:38:43;;;;;;;11.40;3.65;;;4.90;99.90;;;;;;5072400;28;20183;-81
2022/01/30 04:41:30;;;;;;;9.98;3.15;;;5.00;89.60;;;;;;5072301;28;20191;-82
2022/01/30 04:52:34;;;;;;;8.50;2.40;;;5.20;1.00;;;;;;5062818;28;20186;-83
2022/01/30 04:57:53;;;;;;;6.20;2.58;;;5.30;1.00;;;;;;5062017;28;20274;-82
2022/01/30 05:00:47;;;;;;;5.68;2.28;;;5.40;1.00;;;;;;5065865;28;20187;-82
2022/01/30 05:03:28;;;;;;;11.45;2.65;;;5.30;99.90;;;;;;5065951;28;20294;-81
2022/01/30 05:06:02;;;;;;;9.32;3.10;;;5.30;1.00;;;;;;5064323;28;20250;-82
2022/01/30 05:08:30;;;;;;;18.90;3.45;;;5.30;99.90;;;;;;5062928;28;20241;-82
2022/01/30 05:10:57;;;;;;;8.15;3.30;;;5.30;99.90;;;;;;5062368;28;20272;-82
2022/01/30 05:13:28;;;;;;;4.97;2.53;;;5.30;99.90;;;;;;5063677;28;20286;-83
2022/01/30 05:16:00;;;;;;;14.60;3.40;;;5.10;3.70;;;;;;5062501;28;20230;-83
2022/01/30 05:18:29;;;;;;;9.35;2.58;;;5.30;1.00;;;;;;5061772;28;20187;-83
2022/01/30 05:20:57;;;;;;;13.50;3.75;;;5.30;99.90;;;;;;5062802;28;20215;-82
2022/01/30 05:23:24;;;;;;;9.82;3.45;;;5.30;99.90;;;;;;5062286;28;20253;-83
2022/01/30 05:25:53;;;;;;;16.30;4.22;;;5.30;99.90;;;;;;5061230;28;20219;-82
2022/01/30 05:28:22;;;;;;;7.63;3.30;;;5.30;1.00;;;;;;5068658;28;20191;-82
2022/01/30 05:30:50;;;;;;;11.85;4.78;;;5.30;64.70;;;;;;5062377;28;20640;-82
2022/01/30 05:33:17;;;;;;;16.70;3.83;;;5.30;99.90;;;;;;5064505;28;20638;-82
2022/01/30 05:35:44;;;;;;;3.70;2.65;;;5.40;1.00;;;;;;5063296;28;20222;-82
2022/01/30 05:38:11;;;;;;;24.70;4.60;;;5.40;99.90;;;;;;5061896;28;20214;-82
2022/01/30 05:40:39;;;;;;;10.18;3.08;;;5.40;1.00;;;;;;5061463;28;20210;-82
2022/01/30 05:43:07;;;;;;;9.15;3.80;;;5.40;1.00;;;;;;5061950;28;20261;-82
2022/01/30 05:45:38;;;;;;;12.82;4.43;;;5.70;1.00;;;;;;5062585;28;20211;-82
2022/01/30 05:48:10;;;;;;;10.73;3.25;;;5.40;1.00;;;;;;5065978;28;20204;-82
2022/01/30 05:50:37;;;;;;;9.40;2.97;;;5.40;1.00;;;;;;5068292;28;20206;-82
2022/01/30 05:53:04;;;;;;;19.48;3.40;;;5.30;99.90;;;;;;5065732;28;20203;-82
2022/01/30 05:55:31;;;;;;;8.57;2.60;;;5.50;1.00;;;;;;5074662;28;20225;-81
2022/01/30 05:57:58;;;;;;;7.00;2.50;;;5.40;99.90;;;;;;5077600;28;20190;-81
2022/01/30 06:00:26;;;;;;;12.65;3.65;;;5.40;1.00;;;;;;5076666;28;20231;-82
2022/01/30 06:02:53;;;;;;;15.68;3.70;;;5.20;1.00;;;;;;5078574;28;20208;-82
2022/01/30 06:05:22;;;;;;;11.80;4.20;;;5.10;1.00;;;;;;5079116;28;20210;-82
2022/01/30 06:07:52;;;;;;;21.30;4.05;;;5.20;1.00;;;;;;5076078;28;20233;-82
2022/01/30 06:10:20;;;;;;;15.10;3.45;;;5.30;1.00;;;;;;5075347;28;20185;-81
2022/01/30 06:12:46;;;;;;;16.60;4.25;;;5.30;99.90;;;;;;5075524;28;20233;-82
2022/01/30 06:15:14;;;;;;;18.63;3.47;;;5.30;1.00;;;;;;5075383;28;20431;-82
2022/01/30 06:17:42;;;;;;;21.33;4.30;;;5.40;1.00;;;;;;5076698;28;20457;-82
2022/01/30 06:20:09;;;;;;;18.20;4.15;;;5.40;1.00;;;;;;5076975;28;20195;-82
2022/01/30 06:22:37;;;;;;;23.10;5.68;;;5.50;99.90;;;;;;5077131;28;20199;-81
2022/01/30 06:25:04;;;;;;;18.95;4.78;;;5.50;99.90;;;;;;5076681;28;20213;-81
2022/01/30 06:27:31;;;;;;;18.73;4.63;;;5.40;1.00;;;;;;5076745;28;20234;-81
2022/01/30 06:29:57;;;;;;;15.40;4.10;;;5.60;99.90;;;;;;5075853;28;20197;-81
2022/01/30 06:32:24;;;;;;;35.70;4.97;;;5.60;1.00;;;;;;5076886;28;20203;-81
2022/01/30 06:34:52;;;;;;;9.18;3.85;;;5.50;1.00;;;;;;5076811;28;20302;-81
2022/01/30 06:37:19;;;;;;;11.68;3.72;;;5.60;1.00;;;;;;5077624;28;20285;-81
2022/01/30 06:39:45;;;;;;;16.25;3.90;;;5.50;99.90;;;;;;5078166;28;20195;-81
2022/01/30 06:42:12;;;;;;;12.15;3.33;;;5.50;1.00;;;;;;5078356;28;20199;-81
2022/01/30 06:44:38;;;;;;;12.82;3.45;;;5.40;99.90;;;;;;5076699;28;20187;-82
2022/01/30 06:47:06;;;;;;;13.82;3.85;;;5.40;1.00;;;;;;5075201;28;20222;-82
2022/01/30 06:49:33;;;;;;;10.38;3.85;;;5.50;99.90;;;;;;5070897;28;20685;-81
2022/01/30 06:52:00;;;;;;;11.07;3.15;;;5.50;99.90;;;;;;5070853;28;20191;-81
2022/01/30 06:54:27;;;;;;;17.20;3.40;;;5.50;99.90;;;;;;5078103;28;20203;-81
2022/01/30 06:56:54;;;;;;;13.27;3.88;;;5.50;99.90;;;;;;5077472;28;20249;-81
2022/01/30 06:59:20;;;;;;;17.83;4.43;;;5.50;99.90;;;;;;5076925;28;20194;-81
2022/01/30 07:01:48;;;;;;;14.85;4.05;;;5.50;99.90;;;;;;5077550;28;20222;-81
2022/01/30 07:04:15;;;;;;;13.50;3.55;;;5.60;1.00;;;;;;5075368;28;20233;-81
2022/01/30 07:06:42;;;;;;;9.38;3.47;;;5.00;99.90;;;;;;5073351;28;20230;-82
2022/01/30 07:09:09;;;;;;;16.85;3.80;;;5.70;99.90;;;;;;5071592;28;20439;-82
2022/01/30 07:11:36;;;;;;;5.38;3.35;;;6.00;99.90;;;;;;5069570;28;20260;-81
2022/01/30 07:14:03;;;;;;;7.85;3.40;;;5.90;99.90;;;;;;5067877;28;20210;-83
2022/01/30 07:16:29;;;;;;;19.65;3.80;;;5.80;99.90;;;;;;5071490;28;20241;-82
2022/01/30 07:18:56;;;;;;;19.48;4.82;;;5.90;99.90;;;;;;5074941;28;20229;-82
2022/01/30 07:21:23;;;;;;;16.00;4.50;;;5.90;99.90;;;;;;5075530;28;20191;-81
2022/01/30 07:23:49;;;;;;;10.70;3.85;;;5.90;99.90;;;;;;5070806;28;20229;-82
2022/01/30 07:26:18;;;;;;;7.13;2.80;;;5.90;99.90;;;;;;5069650;28;20242;-82
2022/01/30 07:28:45;;;;;;;12.85;3.78;;;6.00;99.90;;;;;;5066015;28;20267;-81
2022/01/30 07:31:12;;;;;;;16.92;4.63;;;6.00;99.90;;;;;;5075245;28;20614;-82
2022/01/30 07:33:40;;;;;;;8.10;2.92;;;6.00;99.90;;;;;;5075908;28;20194;-81
2022/01/30 07:36:08;;;;;;;15.48;4.25;;;6.00;99.90;;;;;;5074885;28;20306;-81
2022/01/30 07:38:35;;;;;;;10.15;2.90;;;6.00;99.90;;;;;;5073829;28;20199;-81
2022/01/30 07:41:02;;;;;;;16.42;4.00;;;6.20;99.90;;;;;;5075615;28;20198;-82
2022/01/30 07:43:30;;;;;;;14.45;3.08;;;6.10;99.90;;;;;;5077976;28;20213;-82
2022/01/30 07:45:57;;;;;;;13.20;4.35;;;6.10;99.90;;;;;;5077845;28;20303;-81
2022/01/30 07:48:26;;;;;;;9.52;3.03;;;6.10;99.90;;;;;;5077455;28;20231;-80
2022/01/30 07:50:52;;;;;;;17.23;3.97;;;6.10;99.90;;;;;;5070413;28;20199;-82
2022/01/30 07:53:19;;;;;;;11.52;3.70;;;6.10;99.90;;;;;;5067231;28;20206;-83
2022/01/30 07:55:46;;;;;;;15.20;3.97;;;6.10;99.90;;;;;;5066613;28;20238;-81
2022/01/30 07:58:12;;;;;;;9.27;3.08;;;6.30;99.90;;;;;;5066853;28;20720;-82
2022/01/30 08:00:41;;;;;;;12.93;4.45;;;6.10;99.90;;;;;;5066039;28;20198;-82
2022/01/30 08:03:08;;;;;;;16.08;4.72;;;;;;;;;;5064429;28;20217;-82
2022/01/30 08:05:35;;;;;;;8.43;3.40;;;6.20;99.90;;;;;;5065287;28;20214;-81
2022/01/30 08:08:05;;;;;;;12.90;4.60;;;6.20;99.90;;;;;;5067236;28;20354;-82
2022/01/30 08:10:32;;;;;;;12.25;4.00;;;;;;;;;;5065664;28;20229;-82
2022/01/30 08:12:59;;;;;;;8.50;3.47;;;;;;;;;;5073835;28;20255;-82
2022/01/30 08:15:28;;;;;;;28.83;4.78;;;6.00;99.90;;;;;;5079879;28;20187;-81
2022/01/30 08:17:56;;;;;;;12.82;3.33;;;6.30;99.90;;;;;;5079398;28;20202;-81
2022/01/30 08:20:31;;;;;;;9.55;2.70;;;6.10;99.90;;;;;;5078168;28;20202;-82
2022/01/30 08:23:00;;;;;;;19.55;4.43;;;;;;;;;;5076917;28;20183;-83
2022/01/30 08:25:26;;;;;;;17.50;3.20;;;6.10;99.90;;;;;;5071590;28;20233;-81
2022/01/30 08:27:54;;;;;;;15.10;3.10;;;6.30;99.90;;;;;;5066587;28;20227;-81
2022/01/30 08:30:27;;;;;;;20.90;4.50;;;6.10;99.90;;;;;;5067066;28;20202;-82
2022/01/30 08:32:53;;;;;;;14.20;4.00;;;6.10;99.90;;;;;;5066898;28;20188;-81
2022/01/30 08:35:21;;;;;;;14.27;3.75;;;6.10;99.90;;;;;;5064197;28;20211;-82
2022/01/30 08:37:48;;;;;;;11.75;5.18;;;6.10;99.90;;;;;;5065594;28;20199;-82
2022/01/30 08:40:16;;;;;;;10.07;3.55;;;6.20;99.90;;;;;;5067317;28;20237;-82
2022/01/30 08:42:44;;;;;;;14.43;4.22;;;6.20;99.90;;;;;;5065335;28;20608;-82
2022/01/30 08:45:15;;;;;;;13.57;4.40;;;6.20;99.90;;;;;;5065819;28;20600;-82
2022/01/30 08:47:43;;;;;;;10.18;3.20;;;6.30;99.90;;;;;;5065383;28;20219;-83
2022/01/30 08:50:10;;;;;;;12.10;4.47;;;6.30;99.90;;;;;;5065246;28;20328;-82
2022/01/30 08:52:39;;;;;;;11.05;3.28;;;6.30;99.90;;;;;;5063057;28;20203;-82
2022/01/30 08:55:08;;;;;;;17.73;2.92;;;6.30;99.90;;;;;;5064717;28;20233;-82
2022/01/30 08:57:36;;;;;;;10.23;3.97;;;6.30;99.90;;;;;;5064645;28;20253;-82
2022/01/30 09:00:05;;;;;;;11.43;3.63;;;6.10;99.90;;;;;;5065109;28;20199;-83
2022/01/30 09:02:32;;;;;;;11.40;3.85;;;6.20;99.90;;;;;;5064687;28;20211;-83
2022/01/30 09:04:59;;;;;;;16.23;3.70;;;;;;;;;;5064540;28;20199;-83
2022/01/30 09:07:26;;;;;;;13.63;4.22;;;;;;;;;;5067147;28;20588;-82
2022/01/30 09:09:54;;;;;;;7.35;3.33;;;6.50;99.90;;;;;;5065786;28;20210;-82
2022/01/30 09:12:21;;;;;;;15.25;3.58;;;6.50;99.90;;;;;;5066218;28;20199;-83
2022/01/30 09:14:48;;;;;;;27.70;4.78;;;6.50;99.90;;;;;;5069485;28;20214;-82
2022/01/30 09:17:16;;;;;;;17.02;4.35;;;6.50;99.90;;;;;;5077615;28;20214;-82
2022/01/30 09:19:45;;;;;;;9.73;3.75;;;6.60;99.90;;;;;;5078201;28;20203;-82
2022/01/30 09:22:14;;;;;;;13.23;4.13;;;6.60;99.90;;;;;;5077684;28;20202;-83
2022/01/30 09:24:41;;;;;;;12.98;4.20;;;6.60;99.90;;;;;;5069994;28;20234;-81
2022/01/30 09:27:09;;;;;;;10.70;4.05;;;6.70;99.90;;;;;;5075420;22;20227;-79
2022/01/30 09:29:39;;;;;;;8.95;3.80;;;6.70;99.90;;;;;;5039504;28;20250;-79
2022/01/30 09:32:07;;;;;;;14.52;3.85;;;6.70;99.90;;;;;;5040832;28;20238;-80
2022/01/30 09:34:34;;;;;;;18.52;5.75;;;6.70;99.90;;;;;;5038946;28;20207;-80
2022/01/30 09:37:00;;;;;;;12.45;4.15;;;6.50;99.90;;;;;;5039293;28;20219;-80
2022/01/30 09:39:27;;;;;;;21.50;3.65;;;6.80;99.90;;;;;;5039470;28;20208;-80
2022/01/30 09:41:54;;;;;;;12.38;4.50;;;6.70;99.90;;;;;;5039259;28;20203;-79
2022/01/30 09:44:22;;;;;;;13.68;4.35;;;6.70;99.90;;;;;;5039356;28;20203;-79
2022/01/30 09:46:50;;;;;;;21.77;6.72;;;6.70;99.90;;;;;;5040203;28;20311;-78
2022/01/30 09:49:20;;;;;;;22.88;5.47;;;6.70;99.90;;;;;;5042696;28;20239;-79
2022/01/30 09:51:46;;;;;;;17.77;4.60;;;6.70;99.90;;;;;;5038159;28;20955;-78
2022/01/30 09:54:13;;;;;;;16.10;4.40;;;6.80;99.90;;;;;;5040646;28;20246;-79
2022/01/30 09:56:40;;;;;;;14.00;5.28;;;6.80;99.90;;;;;;5043240;28;20230;-78
2022/01/30 09:59:07;;;;;;;25.00;4.85;;;6.70;99.90;;;;;;5049233;28;20235;-79
2022/01/30 10:01:37;;;;;;;13.50;4.30;;;6.70;99.90;;;;;;5044624;28;20203;-80
2022/01/30 10:04:06;;;;;;;12.70;5.13;;;6.70;99.90;;;;;;5041445;28;20196;-81
2022/01/30 10:06:51;;;;;;;19.75;4.50;;;6.90;99.90;;;;;;5039277;28;20459;-80
2022/01/30 10:09:26;;;;;;;19.88;5.65;;;6.70;99.90;;;;;;5039363;28;20258;-81
2022/01/30 10:12:09;;;;;;;18.83;5.15;;;6.60;99.90;;;;;;5039552;28;20511;-79
2022/01/30 10:14:47;;;;;;;16.70;4.82;;;6.90;99.90;;;;;;5040263;28;20609;-79
2022/01/30 10:17:27;;;;;;;19.02;5.25;;;6.80;99.90;;;;;;5040311;28;20223;-79
2022/01/30 10:20:06;;;;;;;16.23;4.95;;;6.70;99.90;;;;;;5040490;28;20577;-79
2022/01/30 10:22:33;;;;;;;17.27;5.85;;;6.70;99.90;;;;;;5043030;28;20200;-79
2022/01/30 10:25:00;;;;;;;22.58;6.30;;;6.70;99.90;;;;;;5045408;28;20203;-79
2022/01/30 10:27:28;;;;;;;16.92;4.47;;;5.60;99.90;;;;;;5038391;28;20476;-79
2022/01/30 10:29:58;;;;;;;15.75;4.18;;;6.70;99.90;;;;;;5039302;28;20461;-79
2022/01/30 10:32:27;;;;;;;20.85;5.10;;;6.70;99.90;;;;;;5038850;28;20204;-79
2022/01/30 10:34:58;;;;;;;22.80;6.88;;;6.70;99.90;;;;;;5040385;28;20199;-79
2022/01/30 10:37:24;;;;;;;8.55;4.57;;;6.70;99.90;;;;;;5040580;28;20726;-79
2022/01/30 10:39:58;;;;;;;11.40;3.75;;;6.70;99.90;;;;;;5042821;28;20230;-78
2022/01/30 10:42:39;;;;;;;9.68;3.90;;;6.80;99.90;;;;;;5050137;28;20199;-79
2022/01/30 10:45:08;;;;;;;20.52;5.65;;;6.70;99.90;;;;;;5050037;28;20279;-78
2022/01/30 10:47:37;;;;;;;18.67;5.57;;;6.80;99.90;;;;;;5053603;28;20208;-78
2022/01/30 10:50:09;;;;;;;21.23;5.28;;;6.80;99.90;;;;;;5054395;28;20199;-79
2022/01/30 10:52:51;;;;;;;22.48;6.85;;;6.70;99.90;;;;;;5048051;28;20192;-79
2022/01/30 10:55:30;;;;;;;22.70;4.95;;;6.80;99.90;;;;;;5040111;28;20441;-79
2022/01/30 10:57:59;;;;;;;18.75;5.28;;;6.60;99.90;;;;;;5037295;28;20491;-80
2022/01/30 11:00:40;;;;;;;15.15;6.70;;;6.90;99.90;;;;;;5037304;28;20254;-79
2022/01/30 11:03:10;;;;;;;16.30;5.72;;;6.80;99.90;;;;;;5038162;28;20195;-78
2022/01/30 11:05:57;;;;;;;14.20;4.13;;;6.80;99.90;;;;;;5039624;28;20204;-79
2022/01/30 11:08:24;;;;;;;16.00;4.32;;;6.50;99.90;;;;;;5044227;28;20281;-78
2022/01/30 11:11:08;;;;;;;23.92;6.95;;;6.80;99.90;;;;;;5038453;28;20685;-79
2022/01/30 11:13:47;;;;;;;16.08;5.55;;;6.70;99.90;;;;;;5037379;28;20618;-78
2022/01/30 11:19:02;;;;;;;22.00;5.68;;;6.80;99.90;;;;;;5050581;28;20226;-80
2022/01/30 11:21:29;;;;;;;16.17;3.78;;;6.80;99.90;;;;;;5044129;28;20261;-80
2022/01/30 11:23:59;;;;;;;22.08;5.40;;;6.80;99.90;;;;;;5036811;28;20531;-79
2022/01/30 11:26:26;;;;;;;18.17;4.97;;;6.90;99.90;;;;;;5038314;28;20228;-78
2022/01/30 11:28:53;;;;;;;17.80;6.05;;;6.90;99.90;;;;;;5038867;28;20223;-80
2022/01/30 11:31:20;;;;;;;19.38;6.18;;;6.90;99.90;;;;;;5036783;28;20743;-80
2022/01/30 11:33:50;;;;;;;40.95;9.65;;;6.90;99.90;;;;;;5048352;28;20207;-78
2022/01/30 11:36:18;;;;;;;16.25;4.82;;;7.00;99.90;;;;;;5054413;28;20246;-78
2022/01/30 11:38:45;;;;;;;21.90;6.60;;;7.00;99.90;;;;;;5054589;28;20226;-79
2022/01/30 11:41:14;;;;;;;16.55;4.85;;;6.90;99.90;;;;;;5043861;28;20203;-80
2022/01/30 11:43:43;;;;;;;15.85;4.13;;;6.90;99.90;;;;;;5038459;28;20223;-80
2022/01/30 11:46:15;;;;;;;21.05;7.65;;;6.70;99.90;;;;;;5038842;28;20226;-78
2022/01/30 11:48:42;;;;;;;35.80;14.00;;;6.90;99.90;;;;;;5040507;28;20229;-79
2022/01/30 11:51:09;;;;;;;22.15;6.88;;;6.90;99.90;;;;;;5039018;28;20661;-78
2022/01/30 11:53:38;;;;;;;25.00;6.55;;;7.00;99.90;;;;;;5043546;28;20215;-79
2022/01/30 11:56:06;;;;;;;26.05;7.40;;;6.60;99.90;;;;;;5047172;28;20207;-79
2022/01/30 11:58:40;;;;;;;21.23;6.43;;;6.90;99.90;;;;;;5047066;28;20217;-79
2022/01/30 12:01:34;;;;;;;21.05;5.50;;;7.00;99.90;;;;;;5047586;28;20223;-78
2022/01/30 12:04:04;;;;;;;21.63;6.70;;;7.00;99.90;;;;;;5046742;28;20279;-78
2022/01/30 12:06:35;;;;;;;25.25;6.53;;;7.10;99.90;;;;;;5047859;28;20246;-79
2022/01/30 12:09:18;;;;;;;28.00;7.03;;;7.00;99.90;;;;;;5045303;28;20238;-79
2022/01/30 12:12:05;;;;;;;20.58;7.82;;;7.10;99.90;;;;;;5041641;28;20579;-80
2022/01/30 12:14:48;;;;;;;23.40;7.30;;;7.00;99.90;;;;;;5042274;28;20588;-79
2022/01/30 12:17:14;;;;;;;21.73;6.53;;;6.80;99.90;;;;;;5039955;28;20224;-79
2022/01/30 12:20:01;;;;;;;17.65;6.70;;;7.00;99.90;;;;;;5037743;28;20196;-78
2022/01/30 12:22:42;;;;;;;22.60;8.23;;;7.10;99.90;;;;;;5039679;28;20211;-78
2022/01/30 12:25:37;;;;;;;27.02;6.65;;;6.90;99.90;;;;;;5042245;28;20253;-79
2022/01/30 12:28:12;;;;;;;16.95;5.32;;;7.00;99.90;;;;;;5043534;28;20304;-80
2022/01/30 12:30:49;;;;;;;16.65;5.15;;;6.90;99.90;;;;;;5040739;28;20253;-79
2022/01/30 12:33:45;;;;;;;46.35;13.77;;;7.00;99.90;;;;;;5046368;28;20214;-78
2022/01/30 12:36:18;;;;;;;21.70;8.50;;;6.90;99.90;;;;;;5038043;28;20204;-79
2022/01/30 12:38:45;;;;;;;27.52;6.10;;;7.10;99.90;;;;;;5043765;28;20549;-78
2022/01/30 12:41:21;;;;;;;26.75;8.20;;;7.00;99.90;;;;;;5052831;28;20298;-78
2022/01/30 12:43:54;;;;;;;25.20;6.63;;;7.20;99.90;;;;;;5046610;28;20188;-80
2022/01/30 12:46:22;;;;;;;25.38;7.20;;;7.10;99.90;;;;;;5050136;28;20259;-80
2022/01/30 12:49:17;;;;;;;29.75;10.18;;;7.40;99.90;;;;;;5045814;28;20219;-80
2022/01/30 12:51:49;;;;;;;16.67;7.10;;;7.10;99.90;;;;;;5010870;28;20204;-79
2022/01/30 12:54:18;;;;;;;20.58;6.70;;;7.40;99.90;;;;;;5044950;28;20191;-79
2022/01/30 12:56:47;;;;;;;28.42;9.35;;;7.00;99.90;;;;;;5043301;28;20226;-78
2022/01/30 12:59:15;;;;;;;18.52;5.78;;;7.00;99.90;;;;;;5046694;28;20546;-79
2022/01/30 13:01:44;;;;;;;25.75;7.75;;;7.10;99.90;;;;;;5044277;28;20203;-79
2022/01/30 13:04:14;;;;;;;18.50;6.32;;;7.20;99.90;;;;;;5043480;28;20669;-79
2022/01/30 13:06:42;;;;;;;19.73;4.60;;;7.40;99.90;;;;;;5042681;28;20441;-80
2022/01/30 13:09:10;;;;;;;22.88;5.70;;;7.10;99.90;;;;;;5047746;28;20989;-78
2022/01/30 13:11:37;;;;;;;18.38;6.38;;;7.20;99.90;;;;;;5048405;28;20211;-79
2022/01/30 13:14:07;;;;;;;26.52;6.13;;;7.10;99.90;;;;;;5049536;28;20208;-80
2022/01/30 13:16:38;;;;;;;20.40;6.55;;;7.10;99.90;;;;;;5044276;28;20228;-79
2022/01/30 13:19:07;;;;;;;19.15;6.20;;;7.20;99.90;;;;;;5046392;28;20204;-80
2022/01/30 13:21:35;;;;;;;27.33;6.20;;;7.10;99.90;;;;;;5044152;28;20196;-79
2022/01/30 13:24:04;;;;;;;28.42;6.85;;;7.10;99.90;;;;;;5041755;28;20471;-80
2022/01/30 13:26:37;;;;;;;14.43;4.95;;;7.10;99.90;;;;;;5042469;28;20227;-80
2022/01/30 13:29:09;;;;;;;16.27;4.80;;;7.20;99.90;;;;;;5042408;28;20220;-79
2022/01/30 13:31:37;;;;;;;19.35;5.03;;;7.10;99.90;;;;;;5052886;28;20195;-79
2022/01/30 13:34:23;;;;;;;25.02;4.30;;;7.10;99.90;;;;;;5052660;28;20299;-79
2022/01/30 13:36:55;;;;;;;23.48;4.93;;;7.10;99.90;;;;;;5049292;28;20227;-80